Time;durP1;ratioP1;P1;durP2;ratioP2;P2;SDS_P1;SDS_P2;PMS_P1;PMS_P2;Temp;Humidity;BMP_temperature;BMP_pressure;BME280_temperature;BME280_humidity;BME280_pressure;Samples;Min_cycle;Max_cycle;Signal;HPM_P1;HPM_P2
2022/07/19 00:01:02;;;;;;;1.85;1.30;;;;;;;14.65;65.88;99688.28;4830674;29;20049;-83
2022/07/19 00:03:31;;;;;;;1.63;1.42;;;;;;;14.22;66.15;99617.00;4800617;29;20113;-84
2022/07/19 00:05:57;;;;;;;1.73;1.30;;;;;;;13.89;65.89;99562.06;4814861;29;20084;-85
2022/07/19 00:08:33;;;;;;;1.83;1.42;;;;;;;13.91;65.98;99572.47;4817011;29;20069;-82
2022/07/19 00:11:09;;;;;;;1.98;1.40;;;;;;;14.52;66.00;99674.66;4818674;29;20043;-82
2022/07/19 00:13:35;;;;;;;1.33;1.23;;;;;;;14.15;66.43;99616.31;4814391;29;20050;-84
2022/07/19 00:16:01;;;;;;;2.58;1.23;;;;;;;14.60;66.29;99684.94;4801455;29;20078;-85
2022/07/19 00:18:27;;;;;;;3.15;1.48;;;;;;;14.40;66.06;99659.28;4762429;29;1581286;-83
2022/07/19 00:20:58;;;;;;;2.55;1.20;;;;;;;14.45;65.92;99662.63;4817201;29;20042;-83
2022/07/19 00:23:24;;;;;;;2.15;1.35;;;;;;;13.90;66.07;99594.31;4814957;29;20038;-82
2022/07/19 00:25:50;;;;;;;1.67;1.20;;;;;;;14.38;66.11;99682.88;4802965;29;20447;-84
2022/07/19 00:28:18;;;;;;;2.65;1.20;;;;;;;14.16;66.23;99656.41;4814438;29;20525;-83
2022/07/19 00:30:47;;;;;;;1.55;1.20;;;;;;;13.08;66.29;99495.22;4804662;29;20099;-84
2022/07/19 00:33:17;;;;;;;1.63;1.20;;;;;;;14.25;66.39;99686.72;4795211;29;20076;-83
2022/07/19 00:35:43;;;;;;;1.00;0.90;;;;;;;14.25;66.68;99694.56;4807599;29;20552;-82
2022/07/19 00:38:11;;;;;;;1.52;1.23;;;;;;;14.24;66.50;99698.94;4805204;29;20079;-82
2022/07/19 00:40:40;;;;;;;2.75;1.20;;;;;;;13.99;66.52;99655.09;4805541;29;20046;-83
2022/07/19 00:43:07;;;;;;;2.05;1.27;;;;;;;14.23;66.54;99704.22;4813863;29;20127;-82
2022/07/19 00:45:34;;;;;;;1.20;1.10;;;;;;;14.21;66.46;99695.56;4838077;29;20983;-82
2022/07/19 00:48:01;;;;;;;2.22;1.10;;;;;;;13.93;66.40;99654.38;4834887;29;20476;-81
2022/07/19 00:50:27;;;;;;;2.90;1.40;;;;;;;14.21;66.51;99699.03;4824667;29;20072;-84
2022/07/19 00:52:56;;;;;;;2.13;1.20;;;;;;;13.98;66.50;99665.59;4823365;29;20049;-83
2022/07/19 00:55:23;;;;;;;2.25;1.30;;;;;;;14.10;66.64;99680.13;4820113;29;20075;-82
2022/07/19 00:58:00;;;;;;;3.60;1.40;;;;;;;14.07;66.82;99673.19;4829231;29;20141;-84
2022/07/19 01:00:29;;;;;;;2.10;1.30;;;;;;;14.18;66.54;99701.72;4822623;29;20040;-82
2022/07/19 01:02:59;;;;;;;2.88;1.08;;;;;;;13.05;66.41;99529.25;4840341;29;20050;-83
2022/07/19 01:05:52;;;;;;;1.95;1.30;;;;;;;13.78;66.60;99643.41;4835552;29;20037;-87
2022/07/19 01:08:41;;;;;;;1.85;1.30;;;;;;;13.03;66.81;99525.81;4837477;29;20038;-84
2022/07/19 01:11:09;;;;;;;2.42;1.15;;;;;;;13.75;66.88;99650.47;4822169;29;20066;-84
2022/07/19 01:13:36;;;;;;;1.77;1.10;;;;;;;13.83;66.97;99659.84;4826737;29;20073;-83
2022/07/19 01:16:03;;;;;;;2.55;1.20;;;;;;;13.55;66.64;99615.19;4825849;29;20067;-83
2022/07/19 01:18:29;;;;;;;2.40;1.00;;;;;;;13.88;66.59;99666.72;4830389;29;20058;-84
2022/07/19 01:20:57;;;;;;;2.35;1.25;;;;;;;13.67;66.66;99635.84;4824866;29;20647;-83
2022/07/19 01:23:24;;;;;;;2.63;0.98;;;;;;;13.53;66.76;99615.25;4801905;29;20074;-84
2022/07/19 01:25:50;;;;;;;2.53;1.00;;;;;;;14.07;66.92;99704.59;4807861;29;20058;-83
2022/07/19 01:28:17;;;;;;;3.25;1.20;;;;;;;13.85;66.71;99673.72;4800786;29;20110;-83
2022/07/19 01:30:43;;;;;;;3.63;1.02;;;;;;;14.01;66.79;99704.78;4813722;29;20495;-83
2022/07/19 01:33:09;;;;;;;3.30;1.15;;;;;;;13.94;67.04;99687.50;4814550;29;20137;-83
2022/07/19 01:35:35;;;;;;;3.20;1.20;;;;;;;13.87;66.89;99681.56;4817993;29;20061;-81
2022/07/19 01:38:02;;;;;;;1.67;1.10;;;;;;;13.81;66.93;99677.31;4816788;29;20049;-82
2022/07/19 01:40:32;;;;;;;3.50;1.30;;;;;;;13.97;67.06;99701.34;4814717;29;20053;-83
2022/07/19 01:43:24;;;;;;;1.85;0.98;;;;;;;13.42;67.01;99612.03;4817837;29;20077;-83
2022/07/19 01:45:53;;;;;;;1.58;0.90;;;;;;;13.69;66.95;99661.94;4826823;29;20103;-85
2022/07/19 01:48:24;;;;;;;2.00;1.00;;;;;;;13.04;67.00;99543.22;4803531;29;20040;-83
2022/07/19 01:50:58;;;;;;;1.45;1.10;;;;;;;13.66;66.90;99641.09;4830275;29;20057;-82
2022/07/19 01:53:24;;;;;;;1.65;1.10;;;;;;;14.15;67.05;99738.41;4825150;29;20110;-83
2022/07/19 01:55:50;;;;;;;1.23;1.13;;;;;;;13.98;66.60;99690.00;4803620;29;20054;-83
2022/07/19 01:58:22;;;;;;;2.33;1.15;;;;;;;13.45;66.77;99605.88;4816344;29;20495;-84
2022/07/19 02:00:51;;;;;;;1.92;1.10;;;;;;;13.62;66.61;99619.41;4814192;29;20046;-85
2022/07/19 02:03:20;;;;;;;2.75;1.00;;;;;;;13.98;66.57;99673.44;4815349;29;20042;-85
2022/07/19 02:05:51;;;;;;;4.72;1.30;;;;;;;14.26;66.73;99709.34;4817458;29;20522;-86
2022/07/19 02:08:18;;;;;;;3.17;1.13;;;;;;;13.79;66.57;99600.66;4803486;29;20389;-86
2022/07/19 02:10:44;;;;;;;2.75;1.20;;;;;;;14.36;66.38;99670.72;4786973;29;20402;-84
2022/07/19 02:13:10;;;;;;;4.03;1.25;;;;;;;14.53;66.34;99675.50;4791861;29;20042;-84
2022/07/19 02:15:56;;;;;;;1.77;1.20;;;;;;;14.81;65.96;99725.41;4798855;29;20098;-85
2022/07/19 02:18:26;;;;;;;5.80;1.40;;;;;;;14.24;65.67;99611.72;4819914;29;20083;-82
2022/07/19 02:20:52;;;;;;;2.65;1.13;;;;;;;13.94;65.59;99535.78;4814584;29;20057;-84
2022/07/19 02:23:18;;;;;;;1.63;1.20;;;;;;;14.85;65.39;99681.66;4817503;29;20054;-80
2022/07/19 02:25:45;;;;;;;2.33;1.10;;;;;;;14.12;64.97;99565.84;4790872;29;20053;-83
2022/07/19 02:28:11;;;;;;;3.17;1.20;;;;;;;14.18;64.91;99576.09;4805704;29;20050;-85
2022/07/19 02:30:44;;;;;;;2.97;1.38;;;;;;;14.96;65.17;99708.41;4817934;29;20049;-86
2022/07/19 02:33:10;;;;;;;1.20;1.10;;;;;;;14.35;64.97;99609.69;4828690;29;20049;-83
2022/07/19 02:35:36;;;;;;;2.10;1.20;;;;;;;15.11;65.11;99728.06;4817279;29;20057;-84
2022/07/19 02:38:02;;;;;;;1.77;1.30;;;;;;;14.74;64.82;99674.94;4817391;29;20053;-87
2022/07/19 02:40:32;;;;;;;1.98;1.02;;;;;;;15.09;65.01;99727.25;4799915;29;20494;-84
2022/07/19 02:43:00;;;;;;;1.52;1.15;;;;;;;15.13;64.90;99728.88;4814068;29;20054;-85
2022/07/19 02:45:28;;;;;;;1.77;1.00;;;;;;;14.83;64.94;99663.34;4831290;29;20058;-85
2022/07/19 02:47:54;;;;;;;5.32;1.23;;;;;;;15.30;64.93;99736.25;4803381;29;20042;-84
2022/07/19 02:50:24;;;;;;;1.45;1.13;;;;;;;15.44;64.63;99753.34;4818986;29;20129;-85
2022/07/19 02:53:00;;;;;;;1.60;1.17;;;;;;;14.73;64.26;99593.81;4829661;29;20042;-85
2022/07/19 02:55:31;;;;;;;1.30;1.10;;;;;;;15.09;64.42;99630.28;4828136;29;20062;-84
2022/07/19 02:58:20;;;;;;;3.30;1.23;;;;;;;14.56;63.94;99534.06;4818705;29;20049;-85
2022/07/19 03:00:49;;;;;;;2.08;1.10;;;;;;;15.06;63.69;99597.19;4816592;29;20046;-86
2022/07/19 03:03:58;;;;;;;2.05;1.23;;;;;;;15.41;63.66;99633.69;4819128;29;20150;-82
2022/07/19 03:06:07;;;;;;;2.75;1.05;;;;;;;16.25;62.90;99734.19;4811111;29;20054;-86
2022/07/19 03:08:47;;;;;;;3.15;1.00;;;;;;;15.68;62.91;99628.44;4804204;29;20078;-84
2022/07/19 03:11:16;;;;;;;1.70;0.93;;;;;;;16.45;62.73;99742.31;4823530;29;20046;-83
2022/07/19 03:13:52;;;;;;;1.58;1.00;;;;;;;15.76;62.44;99607.25;4828917;29;20043;-82
2022/07/19 03:16:22;;;;;;;1.60;1.10;;;;;;;16.66;61.81;99736.31;4826294;29;20499;-83
2022/07/19 03:18:48;;;;;;;2.17;1.02;;;;;;;15.90;61.55;99606.78;4807677;29;20523;-82
2022/07/19 03:21:15;;;;;;;3.17;1.08;;;;;;;16.06;61.48;99612.38;4808447;29;20190;-85
2022/07/19 03:23:41;;;;;;;1.75;1.20;;;;;;;16.77;61.03;99730.69;4818587;29;20042;-84
2022/07/19 03:26:11;;;;;;;1.58;0.90;;;;;;;16.61;61.04;99684.88;4798662;29;20046;-86
2022/07/19 03:28:40;;;;;;;1.90;1.10;;;;;;;16.52;60.56;99657.16;4818019;29;20061;-84
2022/07/19 03:31:11;;;;;;;2.85;1.20;;;;;;;16.92;60.31;99712.63;4799224;29;20368;-84
2022/07/19 03:33:37;;;;;;;2.77;1.30;;;;;;;16.70;60.37;99684.53;4818015;29;20081;-84
2022/07/19 03:36:04;;;;;;;2.17;1.08;;;;;;;17.08;59.99;99727.00;4818131;29;20046;-84
2022/07/19 03:38:33;;;;;;;1.58;0.95;;;;;;;16.39;59.74;99596.34;4805257;29;20529;-86
2022/07/19 03:40:59;;;;;;;1.80;0.90;;;;;;;16.25;59.27;99555.69;4805234;29;20075;-84
2022/07/19 03:43:27;;;;;;;1.27;1.00;;;;;;;16.73;59.13;99642.38;4814174;29;20053;-84
2022/07/19 03:45:59;;;;;;;3.22;1.10;;;;;;;17.03;59.21;99671.09;4816984;29;20046;-86
2022/07/19 03:48:29;;;;;;;2.33;1.00;;;;;;;16.36;58.70;99554.44;4789240;29;20054;-85
2022/07/19 03:51:04;;;;;;;1.23;0.90;;;;;;;17.35;58.49;99729.47;4806197;29;20071;-83
2022/07/19 03:53:42;;;;;;;1.40;1.00;;;;;;;17.26;58.52;99735.94;4820328;29;20034;-83
2022/07/19 03:56:17;;;;;;;2.95;1.20;;;;;;;16.87;58.63;99691.78;4815167;29;20049;-86
2022/07/19 03:58:44;;;;;;;2.15;1.15;;;;;;;17.21;58.61;99747.56;4831882;29;20482;-85
2022/07/19 04:01:11;;;;;;;4.47;1.20;;;;;;;16.93;58.49;99709.09;4819033;29;20058;-85
2022/07/19 04:03:38;;;;;;;3.63;1.20;;;;;;;17.21;58.25;99734.41;4812647;29;20050;-84
2022/07/19 04:06:09;;;;;;;1.42;0.90;;;;;;;17.53;58.27;99743.69;4790792;29;20079;-80
2022/07/19 04:08:36;;;;;;;1.35;1.10;;;;;;;17.71;57.92;99731.59;4811908;29;20046;-84
2022/07/19 04:11:04;;;;;;;1.00;0.90;;;;;;;17.16;57.45;99643.41;4822203;29;20042;-82
2022/07/19 04:13:34;;;;;;;2.03;1.00;;;;;;;17.50;57.20;99719.28;4823631;29;20073;-84
2022/07/19 04:16:10;;;;;;;2.75;1.20;;;;;;;17.17;57.13;99683.72;4832947;29;20125;-85
2022/07/19 04:18:41;;;;;;;1.77;0.85;;;;;;;17.44;57.13;99723.88;4813756;29;20077;-87
2022/07/19 04:21:18;;;;;;;2.35;1.40;;;;;;;17.65;57.12;99731.00;4810774;29;20046;-82
2022/07/19 04:23:44;;;;;;;3.67;1.10;;;;;;;17.63;56.66;99699.47;4817581;29;20050;-85
2022/07/19 04:26:10;;;;;;;1.65;1.10;;;;;;;17.97;56.65;99742.88;4815811;29;20050;-86
2022/07/19 04:28:37;;;;;;;2.75;1.10;;;;;;;18.03;56.35;99740.00;4800679;29;20460;-84
2022/07/19 04:31:16;;;;;;;1.55;1.10;;;;;;;17.36;56.71;99615.47;4818745;29;20133;-88
2022/07/19 04:34:16;;;;;;;1.67;0.93;;;;;;;17.70;56.27;99636.94;4806883;29;20066;-82
2022/07/19 04:37:10;;;;;;;1.95;1.10;;;;;;;17.83;55.79;99613.59;4811208;29;20047;-88
2022/07/19 04:39:39;;;;;;;2.03;1.27;;;;;;;18.48;55.14;99695.13;4796540;29;20072;-84
2022/07/19 04:42:05;;;;;;;1.02;0.95;;;;;;;18.09;54.31;99614.31;4800991;29;20057;-84
2022/07/19 04:44:35;;;;;;;1.15;0.90;;;;;;;18.93;54.01;99733.56;4813270;29;20213;-85
2022/07/19 04:47:01;;;;;;;4.28;1.10;;;;;;;19.10;54.16;99745.16;4817280;29;20109;-82
2022/07/19 04:49:31;;;;;;;2.67;0.80;;;;;;;18.76;53.70;99676.31;4813784;29;20498;-85
2022/07/19 04:51:57;;;;;;;1.80;1.00;;;;;;;19.17;53.36;99717.59;4813830;29;20057;-83
2022/07/19 04:54:23;;;;;;;3.90;1.10;;;;;;;18.92;53.33;99659.84;4813505;29;20043;-84
2022/07/19 04:56:50;;;;;;;3.33;2.53;;;;;;;19.21;52.93;99669.06;4798369;29;20046;-89
2022/07/19 04:59:19;;;;;;;2.08;1.45;;;;;;;19.63;52.74;99726.94;4800707;29;20050;-84
2022/07/19 05:01:47;;;;;;;1.60;0.98;;;;;;;19.08;52.15;99610.78;4804951;29;20138;-85
2022/07/19 05:04:13;;;;;;;2.10;0.93;;;;;;;20.07;51.76;99742.44;4827245;29;20042;-84
2022/07/19 05:07:16;;;;;;;3.10;0.88;;;;;;;19.81;51.44;99651.28;4813930;29;20046;-83
2022/07/19 05:10:09;;;;;;;2.95;0.88;;;;;;;20.14;51.19;99669.88;4810511;29;20050;-83
2022/07/19 05:12:36;;;;;;;1.10;0.70;;;;;;;20.47;50.32;99739.56;4798293;29;20065;-83
2022/07/19 05:15:04;;;;;;;3.40;0.90;;;;;;;20.56;50.79;99727.69;4826098;29;20042;-83
2022/07/19 05:17:31;;;;;;;1.33;0.90;;;;;;;20.39;49.81;99695.06;4826127;29;20064;-83
2022/07/19 05:19:57;;;;;;;1.00;0.90;;;;;;;20.41;49.39;99697.59;4820271;29;20147;-85
2022/07/19 05:22:24;;;;;;;2.67;1.00;;;;;;;20.24;49.53;99649.13;4801577;29;20052;-84
2022/07/19 05:24:52;;;;;;;1.45;1.10;;;;;;;20.48;49.45;99675.22;4813309;29;20046;-85
2022/07/19 05:27:21;;;;;;;1.35;0.90;;;;;;;20.49;48.78;99671.66;4801777;29;20065;-84
2022/07/19 05:29:47;;;;;;;1.90;1.15;;;;;;;20.87;49.00;99699.66;4815706;29;20404;-85
2022/07/19 05:32:17;;;;;;;0.70;0.70;;;;;;;20.90;48.77;99643.97;4813761;29;20038;-82
2022/07/19 05:34:45;;;;;;;2.10;0.98;;;;;;;21.49;48.11;99701.59;4798484;29;20556;-82
2022/07/19 05:37:11;;;;;;;3.20;0.95;;;;;;;21.91;47.11;99729.28;4812784;29;20057;-84
2022/07/19 05:39:37;;;;;;;2.17;1.15;;;;;;;21.85;47.12;99712.88;4816311;29;20077;-87
2022/07/19 05:42:09;;;;;;;1.25;0.93;;;;;;;21.85;46.77;99718.19;4817118;29;20057;-79
2022/07/19 05:44:35;;;;;;;0.98;0.80;;;;;;;21.93;47.00;99710.63;4814540;29;20126;-83
2022/07/19 05:47:08;;;;;;;1.17;0.80;;;;;;;22.24;45.74;99714.16;4822177;29;20042;-84
2022/07/19 05:49:34;;;;;;;1.17;0.80;;;;;;;22.24;45.86;99645.25;4816575;29;20525;-85
2022/07/19 05:52:01;;;;;;;1.05;0.80;;;;;;;23.97;44.85;99701.72;4806121;29;20050;-83
2022/07/19 05:54:27;;;;;;;0.80;0.75;;;;;;;26.28;41.98;99701.50;4816349;29;20134;-88
2022/07/19 05:56:54;;;;;;;0.75;0.75;;;;;;;28.16;38.32;99643.84;4819896;29;20455;-84
2022/07/19 05:59:21;;;;;;;3.20;0.90;;;;;;;30.23;35.81;99690.81;4816093;29;20080;-85
2022/07/19 06:01:51;;;;;;;1.58;0.70;;;;;;;30.07;33.89;99584.09;4805280;29;20046;-86
2022/07/19 06:04:17;;;;;;;1.88;0.90;;;;;;;31.49;33.02;99640.22;4811977;29;20996;-84
2022/07/19 06:06:43;;;;;;;2.15;1.10;;;;;;;32.42;30.58;99698.19;4816509;29;20045;-83
2022/07/19 06:09:12;;;;;;;0.90;0.85;;;;;;;33.04;30.07;99637.09;4817430;29;20107;-83
2022/07/19 06:11:41;;;;;;;2.78;0.80;;;;;;;34.39;27.87;99679.16;4804055;29;20042;-83
2022/07/19 06:14:14;;;;;;;0.63;0.63;;;;;;;34.77;26.08;99600.25;4835844;29;20046;-86
2022/07/19 06:16:42;;;;;;;2.13;0.90;;;;;;;36.43;25.28;99697.31;4841538;29;20046;-83
2022/07/19 06:19:12;;;;;;;2.33;0.82;;;;;;;36.98;23.75;99605.75;4815400;29;21266;-83
2022/07/19 06:21:49;;;;;;;1.05;0.93;;;;;;;36.17;22.82;99634.44;4816642;29;20050;-83
2022/07/19 06:24:25;;;;;;;1.83;0.82;;;;;;;36.59;24.12;99702.56;4821499;29;20099;-84
2022/07/19 06:26:51;;;;;;;1.02;0.73;;;;;;;36.05;23.67;99629.66;4832538;29;20046;-85
2022/07/19 06:29:28;;;;;;;1.35;0.80;;;;;;;35.96;23.02;99702.81;4811750;29;20046;-85
2022/07/19 06:32:33;;;;;;;2.88;0.80;;;;;;;33.64;24.74;99589.34;4823419;29;20170;-85
2022/07/19 06:35:04;;;;;;;3.00;1.00;;;;;;;35.25;24.12;99646.13;4818420;29;20196;-89
2022/07/19 06:37:43;;;;;;;;;;;;;;;37.68;22.67;99698.31;4833414;29;20052;-85
2022/07/19 06:40:15;;;;;;;2.58;0.70;;;;;;;37.95;21.43;99583.72;4812351;29;19992;-85
2022/07/19 06:42:52;;;;;;;2.25;0.90;;;;;;;38.02;20.67;99641.63;4823363;29;20065;-82
2022/07/19 06:45:20;;;;;;;1.35;0.90;;;;;;;39.17;19.38;99637.66;4808815;29;20158;-82
2022/07/19 06:47:51;;;;;;;1.33;0.80;;;;;;;40.38;18.60;99669.59;4809544;29;20561;-82
2022/07/19 06:50:23;;;;;;;3.33;1.10;;;;;;;39.72;18.99;99670.19;4836297;29;20118;-82
2022/07/19 06:52:51;;;;;;;1.20;0.85;;;;;;;39.10;18.98;99674.84;4825480;29;20490;-80
2022/07/19 06:55:20;;;;;;;2.08;1.00;;;;;;;38.62;19.11;99633.03;4822108;29;20066;-86
2022/07/19 06:57:46;;;;;;;1.10;0.93;;;;;;;39.10;19.00;99659.38;4817769;29;20134;-85
2022/07/19 07:00:19;;;;;;;3.65;0.90;;;;;;;38.39;18.72;99685.78;4826116;29;20038;-82
2022/07/19 07:02:48;;;;;;;1.23;0.90;;;;;;;38.05;19.48;99630.38;4827966;29;20054;-86
2022/07/19 07:05:20;;;;;;;1.00;0.90;;;;;;;39.35;17.81;99628.09;4832650;29;20106;-81
2022/07/19 07:07:51;;;;;;;0.80;0.80;;;;;;;40.56;17.07;99647.94;4828667;29;20062;-81
2022/07/19 07:10:18;;;;;;;4.05;0.80;;;;;;;40.46;17.02;99667.47;4831286;29;20550;-83
2022/07/19 07:12:50;;;;;;;1.45;0.85;;;;;;;38.17;17.84;99681.41;4830064;29;20133;-83
2022/07/19 07:15:17;;;;;;;1.00;0.90;;;;;;;36.51;19.17;99617.84;4813367;29;20216;-81
2022/07/19 07:17:43;;;;;;;2.35;0.70;;;;;;;36.56;19.10;99642.50;4812931;29;20073;-85
2022/07/19 07:20:11;;;;;;;2.50;1.00;;;;;;;38.35;17.93;99613.00;4819098;29;20133;-85
2022/07/19 07:22:37;;;;;;;1.50;0.73;;;;;;;39.24;16.72;99629.50;4798448;29;20062;-84
2022/07/19 07:25:13;;;;;;;3.00;1.00;;;;;;;40.76;16.52;99694.22;4792475;29;20077;-84
2022/07/19 07:27:42;;;;;;;4.25;1.13;;;;;;;40.45;16.49;99594.09;4815707;29;20042;-87
2022/07/19 07:30:10;;;;;;;2.88;0.93;;;;;;;40.77;15.82;99663.19;4830771;29;20508;-86
2022/07/19 07:32:36;;;;;;;3.58;1.00;;;;;;;39.02;16.69;99682.13;4797775;29;20071;-82
2022/07/19 07:35:06;;;;;;;0.82;0.75;;;;;;;40.12;16.73;99703.94;4817531;29;20046;-81
2022/07/19 07:37:32;;;;;;;3.30;0.95;;;;;;;41.60;15.69;99648.91;4821860;29;20045;-86
2022/07/19 07:39:58;;;;;;;1.13;0.63;;;;;;;42.78;14.95;99691.97;4816768;29;20565;-82
2022/07/19 07:42:46;;;;;;;0.80;0.80;;;;;;;43.66;14.23;99631.44;4805474;29;20397;-86
2022/07/19 07:45:18;;;;;;;2.75;0.77;;;;;;;42.92;13.66;99586.00;4815754;29;20057;-85
2022/07/19 07:47:47;;;;;;;2.63;0.70;;;;;;;42.91;13.57;99644.50;4829274;29;20050;-82
2022/07/19 07:50:14;;;;;;;0.80;0.80;;;;;;;43.02;14.40;99665.56;4802412;29;20137;-86
2022/07/19 07:52:40;;;;;;;1.33;0.90;;;;;;;44.05;13.53;99667.44;4815060;29;20059;-84
2022/07/19 07:55:10;;;;;;;2.05;0.70;;;;;;;44.04;13.21;99663.03;4817375;29;20046;-85
2022/07/19 07:57:44;;;;;;;2.00;0.90;;;;;;;42.33;13.85;99662.97;4819069;29;20042;-84
2022/07/19 08:00:24;;;;;;;1.23;0.95;;;;;;;40.35;15.17;99610.88;4813594;29;20134;-89
2022/07/19 08:02:59;;;;;;;0.60;0.60;;;;;;;38.96;15.89;99635.91;4814315;29;20117;-82
2022/07/19 08:05:26;;;;;;;0.90;0.90;;;;;;;37.55;16.91;99641.19;4821549;29;20046;-85
2022/07/19 08:07:53;;;;;;;2.75;0.95;;;;;;;38.59;16.24;99594.56;4815550;29;20050;-83
2022/07/19 08:10:32;;;;;;;1.45;0.80;;;;;;;41.37;15.70;99694.81;4803479;29;20051;-87
2022/07/19 08:13:07;;;;;;;1.60;0.70;;;;;;;42.67;13.67;99592.41;4817384;29;20133;-86
2022/07/19 08:15:35;;;;;;;1.30;0.80;;;;;;;42.29;13.64;99643.47;4823620;29;20046;-83
2022/07/19 08:18:20;;;;;;;2.50;1.02;;;;;;;41.06;14.40;99611.84;4819608;29;20442;-86
2022/07/19 08:20:47;;;;;;;2.05;1.92;;;;;;;43.14;13.60;99702.03;4824635;29;20066;-85
2022/07/19 08:23:16;;;;;;;0.73;0.73;;;;;;;42.28;13.57;99576.22;4793508;29;20594;-85
2022/07/19 08:25:54;;;;;;;2.15;0.77;;;;;;;42.59;13.25;99610.78;4803372;29;20045;-85
2022/07/19 08:28:22;;;;;;;1.77;0.80;;;;;;;41.72;13.49;99603.44;4832945;29;20046;-84
2022/07/19 08:30:49;;;;;;;1.00;0.80;;;;;;;40.85;14.08;99688.53;4835416;29;20045;-84
2022/07/19 08:33:18;;;;;;;1.20;0.88;;;;;;;40.12;14.86;99654.91;4837037;29;20490;-81
2022/07/19 08:35:48;;;;;;;3.60;0.98;;;;;;;40.81;14.81;99647.25;4828684;29;20134;-83
2022/07/19 08:38:16;;;;;;;3.90;1.00;;;;;;;42.24;13.72;99687.88;4816207;29;20053;-82
2022/07/19 08:40:43;;;;;;;1.40;0.73;;;;;;;42.73;13.24;99706.28;4801432;29;20042;-81
2022/07/19 08:43:14;;;;;;;2.22;1.25;;;;;;;41.59;13.95;99697.22;4831206;29;20073;-85
2022/07/19 08:45:41;;;;;;;3.65;1.00;;;;;;;42.43;13.78;99666.06;4813592;29;20153;-81
2022/07/19 08:48:12;;;;;;;2.08;0.90;;;;;;;43.88;12.83;99667.28;4824979;29;20204;-87
2022/07/19 08:50:40;;;;;;;1.95;1.00;;;;;;;44.50;12.31;99644.88;4825101;29;20046;-83
2022/07/19 08:53:43;;;;;;;0.85;0.80;;;;;;;45.69;11.51;99674.59;4815608;29;20050;-83
2022/07/19 08:59:16;;;;;;;1.38;0.90;;;;;;;43.41;12.11;99613.28;4837415;29;20073;-82
2022/07/19 09:01:42;;;;;;;1.20;1.10;;;;;;;43.64;12.07;99659.03;4817923;29;20029;-81
2022/07/19 09:04:21;;;;;;;1.05;0.80;;;;;;;43.76;11.98;99667.25;4834228;29;20069;-82
2022/07/19 09:06:53;;;;;;;1.00;0.90;;;;;;;43.50;12.40;99650.16;4836384;29;20096;-84
2022/07/19 09:09:27;;;;;;;1.40;0.90;;;;;;;41.63;13.44;99671.13;4821916;29;20046;-86
2022/07/19 09:11:56;;;;;;;2.75;1.50;;;;;;;41.27;13.58;99596.22;4820923;29;20053;-84
2022/07/19 09:14:53;;;;;;;0.95;0.80;;;;;;;40.02;13.66;99641.75;4799029;29;20111;-87
2022/07/19 09:17:50;;;;;;;1.52;0.82;;;;;;;39.06;14.94;99684.47;4824808;29;20052;-84
2022/07/19 09:20:29;;;;;;;5.15;1.17;;;;;;;38.01;15.38;99610.09;4827291;29;20046;-82
2022/07/19 09:22:55;;;;;;;1.95;0.70;;;;;;;38.69;15.22;99684.69;4828312;29;20047;-83
2022/07/19 09:25:38;;;;;;;4.60;0.93;;;;;;;40.17;14.27;99636.88;4815461;29;20050;-83
2022/07/19 09:28:06;;;;;;;2.20;0.90;;;;;;;42.18;13.61;99634.13;4823172;29;20094;-84
2022/07/19 09:30:45;;;;;;;1.33;0.98;;;;;;;40.53;13.87;99577.50;4817548;29;20072;-79
2022/07/19 09:33:29;;;;;;;2.03;0.93;;;;;;;40.34;13.92;99671.88;4826496;29;20054;-86
2022/07/19 09:36:17;;;;;;;0.88;0.80;;;;;;;38.35;14.75;99632.84;4804146;29;20058;-82
2022/07/19 09:39:27;;;;;;;3.30;0.98;;;;;;;37.34;15.69;99598.63;4824167;29;20089;-83
2022/07/19 09:41:55;;;;;;;4.20;1.15;;;;;;;39.39;14.62;99637.50;4843183;29;20061;-81
2022/07/19 09:44:24;;;;;;;1.30;0.90;;;;;;;39.80;14.00;99554.84;4830669;29;20564;-83
2022/07/19 09:47:06;;;;;;;1.15;0.70;;;;;;;41.72;13.39;99629.91;4811547;29;20496;-85
2022/07/19 09:49:35;;;;;;;1.70;0.90;;;;;;;42.98;12.48;99643.34;4819749;29;20051;-85
2022/07/19 09:52:04;;;;;;;1.40;0.70;;;;;;;43.10;12.59;99618.75;4822622;29;20050;-83
2022/07/19 09:54:31;;;;;;;2.70;0.70;;;;;;;41.49;12.92;99681.28;4820615;29;20510;-82
2022/07/19 09:56:59;;;;;;;1.65;0.70;;;;;;;38.48;14.36;99557.94;4810451;29;20066;-83
2022/07/19 09:59:27;;;;;;;2.47;0.90;;;;;;;37.27;15.85;99636.53;4804818;29;20097;-84
2022/07/19 10:01:57;;;;;;;4.05;1.23;;;;;;;36.28;16.39;99689.16;4821730;29;20422;-83
2022/07/19 10:04:26;;;;;;;1.95;0.65;;;;;;;35.09;17.08;99641.69;4817111;29;20070;-84
2022/07/19 10:06:54;;;;;;;3.13;1.42;;;;;;;34.34;17.65;99682.41;4804424;29;20104;-83
2022/07/19 10:09:24;;;;;;;3.13;1.10;;;;;;;33.02;18.70;99607.59;4823418;29;20086;-84
2022/07/19 10:11:51;;;;;;;2.08;0.80;;;;;;;32.57;19.26;99622.22;4804900;29;20497;-81
2022/07/19 10:14:17;;;;;;;1.90;0.70;;;;;;;32.25;19.86;99634.47;4796603;29;20122;-84
2022/07/19 10:16:53;;;;;;;0.80;0.70;;;;;;;31.86;20.18;99689.50;4789659;29;20084;-84
2022/07/19 10:19:30;;;;;;;5.13;0.70;;;;;;;31.40;21.65;99694.91;4818520;29;20131;-82
2022/07/19 10:21:57;;;;;;;0.77;0.70;;;;;;;31.10;21.56;99692.38;4800600;29;20521;-82
2022/07/19 10:24:59;;;;;;;3.72;0.90;;;;;;;30.56;22.72;99688.63;4819133;29;20185;-80
2022/07/19 10:27:25;;;;;;;3.38;0.80;;;;;;;30.22;22.85;99689.13;4819121;29;20053;-85
2022/07/19 10:29:57;;;;;;;2.83;2.20;;;;;;;30.11;23.31;99690.13;4822281;29;20465;-82
2022/07/19 10:32:31;;;;;;;0.85;0.80;;;;;;;30.00;23.60;99688.44;4805079;29;20061;-83
2022/07/19 10:35:28;;;;;;;1.13;0.70;;;;;;;30.24;23.73;99689.78;4820504;29;20111;-80
2022/07/19 10:38:03;;;;;;;1.17;0.85;;;;;;;30.55;23.64;99690.44;4819253;29;20054;-82
2022/07/19 10:40:58;;;;;;;1.83;1.00;;;;;;;30.87;23.41;99680.31;4806615;29;20053;-81
2022/07/19 10:43:25;;;;;;;1.70;1.35;;;;;;;30.71;23.33;99619.22;4818282;29;20053;-84
2022/07/19 10:45:57;;;;;;;2.83;0.90;;;;;;;31.06;23.08;99672.16;4818678;29;20042;-84
2022/07/19 10:48:43;;;;;;;0.60;0.60;;;;;;;30.74;23.47;99659.19;4799544;29;20054;-82
2022/07/19 10:51:28;;;;;;;6.63;0.95;;;;;;;30.62;23.41;99677.31;4817238;29;20048;-82
2022/07/19 10:53:56;;;;;;;1.63;0.80;;;;;;;30.23;24.09;99683.59;4818981;29;20073;-83
2022/07/19 10:56:27;;;;;;;3.25;0.95;;;;;;;29.69;24.13;99642.97;4818858;29;20050;-86
2022/07/19 10:59:09;;;;;;;;;;;;;;;;;;;;;
2022/07/19 11:02:00;;;;;;;2.22;1.10;;;;;;;28.16;26.63;99601.06;4817246;29;20450;-84
2022/07/19 11:04:43;;;;;;;1.92;1.23;;;;;;;28.43;27.06;99678.06;4809304;29;20050;-85
2022/07/19 11:07:22;;;;;;;3.05;1.50;;;;;;;27.96;26.87;99620.44;4807863;29;20081;-85
2022/07/19 11:09:57;;;;;;;2.53;0.90;;;;;;;27.69;27.47;99644.19;4815829;29;20096;-85
2022/07/19 11:12:29;;;;;;;2.60;1.23;;;;;;;28.02;26.84;99679.75;4822905;29;20046;-85
2022/07/19 11:14:58;;;;;;;4.03;1.40;;;;;;;27.04;27.35;99552.31;4820106;29;20042;-83
2022/07/19 11:17:24;;;;;;;2.88;1.05;;;;;;;27.38;28.02;99612.78;4821885;29;20172;-86
2022/07/19 11:20:08;;;;;;;0.93;0.90;;;;;;;27.65;28.17;99644.44;4802014;29;20766;-85
2022/07/19 11:22:40;;;;;;;2.35;0.98;;;;;;;27.51;27.88;99570.78;4813614;29;20406;-86
2022/07/19 11:25:11;;;;;;;1.67;0.93;;;;;;;28.53;27.62;99668.28;4835088;29;20111;-86
2022/07/19 11:27:48;;;;;;;1.17;0.90;;;;;;;28.40;27.76;99646.22;4821706;29;20053;-84
2022/07/19 11:30:16;;;;;;;1.73;0.90;;;;;;;27.80;27.48;99633.44;4821353;29;20120;-88
2022/07/19 11:32:54;;;;;;;1.88;0.90;;;;;;;26.97;28.18;99641.03;4807094;29;20153;-86
2022/07/19 11:35:20;;;;;;;1.70;0.93;;;;;;;25.79;28.71;99580.78;4817145;29;20526;-86
2022/07/19 11:37:47;;;;;;;5.20;0.95;;;;;;;25.59;29.78;99617.78;4820483;29;20046;-83
2022/07/19 11:40:54;;;;;;;2.40;0.90;;;;;;;25.26;30.19;99606.81;4818205;29;20034;-84
2022/07/19 11:43:59;;;;;;;5.45;1.50;;;;;;;25.32;30.32;99672.06;4815415;29;20050;-86
2022/07/19 11:46:41;;;;;;;2.35;1.10;;;;;;;23.98;30.43;99518.31;4806320;29;20471;-84
2022/07/19 11:49:15;;;;;;;4.93;1.38;;;;;;;23.60;30.62;99503.19;4821534;29;20078;-84
2022/07/19 11:51:41;;;;;;;1.70;1.10;;;;;;;24.15;30.92;99641.22;4819126;29;20049;-83
2022/07/19 11:54:12;;;;;;;13.10;1.67;;;;;;;23.80;31.06;99641.75;4806424;29;20079;-85
2022/07/19 11:57:03;;;;;;;2.95;1.10;;;;;;;23.69;31.72;99659.25;4825008;29;20172;-85
2022/07/19 11:59:46;;;;;;;4.60;1.08;;;;;;;23.03;32.25;99598.00;4802348;29;20054;-84